createdAt,value
2019-03-30T00:01:30.227Z,14.47
2019-03-30T00:03:59.131Z,14.00
2019-03-30T00:06:28.029Z,17.57
2019-03-30T00:08:56.911Z,17.95
2019-03-30T00:11:25.814Z,16.27
2019-03-30T00:13:54.694Z,15.90
2019-03-30T00:16:23.599Z,14.20
2019-03-30T00:18:52.711Z,14.70
2019-03-30T00:21:21.608Z,13.67
2019-03-30T00:23:50.591Z,13.07
2019-03-30T00:26:19.788Z,16.93
2019-03-30T00:28:48.677Z,15.23
2019-03-30T00:31:17.558Z,15.23
2019-03-30T00:33:46.463Z,15.73
2019-03-30T00:36:15.431Z,12.68
2019-03-30T00:38:44.355Z,14.73
2019-03-30T00:41:13.255Z,13.80
2019-03-30T00:43:42.155Z,14.35
2019-03-30T00:46:11.069Z,16.80
2019-03-30T00:48:39.987Z,14.03
2019-03-30T00:51:08.879Z,14.27
2019-03-30T00:53:38.115Z,14.15
2019-03-30T00:56:07.034Z,13.27
2019-03-30T00:58:36.015Z,14.13
2019-03-30T01:01:04.924Z,14.25
2019-03-30T01:03:33.823Z,14.25
2019-03-30T01:06:02.708Z,13.47
2019-03-30T01:08:31.603Z,16.27
2019-03-30T01:11:00.507Z,13.07
2019-03-30T01:13:29.424Z,13.15
2019-03-30T01:15:58.306Z,10.37
2019-03-30T01:18:27.264Z,14.67
2019-03-30T01:20:56.643Z,13.20
2019-03-30T01:23:25.532Z,14.93
2019-03-30T01:25:54.822Z,13.25
2019-03-30T01:28:23.727Z,12.05
2019-03-30T01:30:52.623Z,15.68
2019-03-30T01:33:21.542Z,12.40
2019-03-30T01:35:50.432Z,15.33
2019-03-30T01:38:19.328Z,13.33
2019-03-30T01:40:48.219Z,12.07
2019-03-30T01:43:17.460Z,12.58
2019-03-30T01:45:46.367Z,14.27
2019-03-30T01:48:15.263Z,12.40
2019-03-30T01:50:44.263Z,12.13
2019-03-30T01:53:13.235Z,11.17
2019-03-30T01:55:42.235Z,13.93
2019-03-30T01:58:11.151Z,11.97
2019-03-30T02:00:40.041Z,13.78
2019-03-30T02:03:08.952Z,12.80
2019-03-30T02:05:37.927Z,16.77
2019-03-30T02:08:06.819Z,13.98
2019-03-30T02:10:40.537Z,14.35
2019-03-30T02:13:09.527Z,13.05
2019-03-30T02:15:38.418Z,13.67
2019-03-30T02:18:07.383Z,16.17
2019-03-30T02:20:37.632Z,13.07
2019-03-30T02:23:06.611Z,15.50
2019-03-30T02:25:35.507Z,12.98
2019-03-30T02:28:06.909Z,12.67
2019-03-30T02:30:35.049Z,13.88
2019-03-30T02:33:04.339Z,15.40
2019-03-30T02:35:33.222Z,11.77
2019-03-30T02:38:02.929Z,14.45
2019-03-30T02:40:31.815Z,13.28
2019-03-30T02:43:01.273Z,10.93
2019-03-30T02:45:30.256Z,14.63
2019-03-30T02:47:59.795Z,12.70
2019-03-30T02:50:28.715Z,12.53
2019-03-30T02:52:57.661Z,12.35
2019-03-30T02:55:26.557Z,15.00
2019-03-30T02:57:55.456Z,14.75
2019-03-30T03:00:24.367Z,12.70
2019-03-30T03:02:53.419Z,17.30
2019-03-30T03:05:22.303Z,14.10
2019-03-30T03:07:51.304Z,11.83
2019-03-30T03:10:20.525Z,14.17
2019-03-30T03:12:49.448Z,16.17
2019-03-30T03:15:18.347Z,14.27
2019-03-30T03:17:47.308Z,13.13
2019-03-30T03:20:16.227Z,12.55
2019-03-30T03:22:45.110Z,11.33
2019-03-30T03:25:14.179Z,11.50
2019-03-30T03:27:43.172Z,9.78
2019-03-30T03:30:12.354Z,10.97
2019-03-30T03:32:41.256Z,10.67
2019-03-30T03:35:10.170Z,9.27
2019-03-30T03:37:45.752Z,12.13
2019-03-30T03:40:09.787Z,13.27
2019-03-30T03:42:38.703Z,11.50
2019-03-30T03:45:08.907Z,11.70
2019-03-30T03:47:37.916Z,10.65
2019-03-30T03:50:06.948Z,8.80
2019-03-30T03:52:36.054Z,11.17
2019-03-30T03:55:06.864Z,14.37
2019-03-30T03:57:37.962Z,11.40
2019-03-30T04:00:07.624Z,11.48
2019-03-30T04:02:36.817Z,11.17
2019-03-30T04:05:06.607Z,11.10
2019-03-30T04:07:36.967Z,11.48
2019-03-30T04:10:05.859Z,10.65
2019-03-30T04:12:36.240Z,11.18
2019-03-30T04:15:05.655Z,10.07
2019-03-30T04:17:34.795Z,13.30
2019-03-30T04:20:04.220Z,12.78
2019-03-30T04:22:33.116Z,10.53
2019-03-30T04:25:02.578Z,10.13
2019-03-30T04:27:31.467Z,12.10
2019-03-30T04:30:00.455Z,11.97
2019-03-30T04:32:29.563Z,9.08
2019-03-30T04:34:59.087Z,11.40
2019-03-30T04:37:28.110Z,14.20
2019-03-30T04:39:57.079Z,9.80
2019-03-30T04:42:25.962Z,16.77
2019-03-30T04:44:55.068Z,11.37
2019-03-30T04:47:23.956Z,12.10
2019-03-30T04:49:53.019Z,11.90
2019-03-30T04:52:22.880Z,9.93
2019-03-30T04:54:51.763Z,9.77
2019-03-30T04:57:20.662Z,10.27
2019-03-30T04:59:49.579Z,10.17
2019-03-30T05:02:18.515Z,9.70
2019-03-30T05:04:47.415Z,13.13
2019-03-30T05:07:16.308Z,13.50
2019-03-30T05:09:45.207Z,9.55
2019-03-30T05:12:14.111Z,11.23
2019-03-30T05:14:43.576Z,9.80
2019-03-30T05:17:12.458Z,10.47
2019-03-30T05:19:41.372Z,11.33
2019-03-30T05:22:12.775Z,10.20
2019-03-30T05:24:40.915Z,10.98
2019-03-30T05:27:09.795Z,10.67
2019-03-30T05:29:38.691Z,10.28
2019-03-30T05:32:07.589Z,10.17
2019-03-30T05:34:36.499Z,12.33
2019-03-30T05:37:05.388Z,12.07
2019-03-30T05:39:34.272Z,12.15
2019-03-30T05:42:04.276Z,10.73
2019-03-30T05:44:33.362Z,9.78
2019-03-30T05:47:02.267Z,9.87
2019-03-30T05:49:31.168Z,9.70
2019-03-30T05:52:00.726Z,11.50
2019-03-30T05:54:29.615Z,11.30
2019-03-30T05:56:58.514Z,9.05
2019-03-30T05:59:28.431Z,10.15
2019-03-30T06:01:57.320Z,12.05
2019-03-30T06:04:26.240Z,11.53
2019-03-30T06:06:55.164Z,11.67
2019-03-30T06:09:24.048Z,12.33
2019-03-30T06:11:52.950Z,10.75
2019-03-30T06:14:21.847Z,11.30
2019-03-30T06:16:50.731Z,7.97
2019-03-30T06:19:19.639Z,9.00
2019-03-30T06:21:48.528Z,11.67
2019-03-30T06:24:17.441Z,10.80
2019-03-30T06:26:46.363Z,10.68
2019-03-30T06:29:15.242Z,10.38
2019-03-30T06:31:46.874Z,10.23
2019-03-30T06:34:14.659Z,11.38
2019-03-30T06:36:44.639Z,10.43
2019-03-30T06:39:13.524Z,9.67
2019-03-30T06:41:42.411Z,11.83
2019-03-30T06:44:11.750Z,13.73
2019-03-30T06:46:40.635Z,9.28
2019-03-30T06:49:09.523Z,14.40
2019-03-30T06:51:38.422Z,10.47
2019-03-30T06:54:07.328Z,11.20
2019-03-30T06:56:36.227Z,14.47
2019-03-30T06:59:05.130Z,12.33
2019-03-30T07:01:35.498Z,11.17
2019-03-30T07:04:04.402Z,15.27
2019-03-30T07:06:33.499Z,12.47
2019-03-30T07:09:04.404Z,13.70
2019-03-30T07:11:37.184Z,11.08
2019-03-30T07:14:06.107Z,10.33
2019-03-30T07:16:36.355Z,10.55
2019-03-30T07:19:05.271Z,11.28
2019-03-30T07:21:34.168Z,13.08
2019-03-30T07:24:03.070Z,10.28
2019-03-30T07:26:32.187Z,10.47
2019-03-30T07:29:01.092Z,10.57
2019-03-30T07:31:30.406Z,11.57
2019-03-30T07:33:59.321Z,11.20
2019-03-30T07:36:28.258Z,11.10
2019-03-30T07:38:57.163Z,12.35
2019-03-30T07:41:26.166Z,12.55
2019-03-30T07:43:55.060Z,10.70
2019-03-30T07:46:23.948Z,17.25
2019-03-30T07:48:52.947Z,12.23
2019-03-30T07:51:21.864Z,16.07
2019-03-30T07:53:51.867Z,12.83
2019-03-30T07:56:20.795Z,12.40
2019-03-30T07:58:49.707Z,12.20
2019-03-30T08:01:19.350Z,12.85
2019-03-30T08:03:48.274Z,15.65
2019-03-30T08:06:17.155Z,13.23
2019-03-30T08:08:46.048Z,15.83
2019-03-30T08:11:14.951Z,10.10
2019-03-30T08:13:43.835Z,15.93
2019-03-30T08:16:12.739Z,13.33
2019-03-30T08:18:41.647Z,10.90
2019-03-30T08:21:11.340Z,13.33
2019-03-30T08:23:40.893Z,10.23
2019-03-30T08:26:09.796Z,11.40
2019-03-30T08:28:38.699Z,15.68
2019-03-30T08:31:07.595Z,12.30
2019-03-30T08:33:36.512Z,11.63
2019-03-30T08:36:05.403Z,12.43
2019-03-30T08:38:34.291Z,14.37
2019-03-30T08:41:03.755Z,13.45
2019-03-30T08:43:32.634Z,15.10
2019-03-30T08:46:01.710Z,4.87
2019-03-30T08:48:31.104Z,7.33
2019-03-30T08:50:59.991Z,7.50
2019-03-30T08:53:28.979Z,9.13
2019-03-30T08:55:57.967Z,8.80
2019-03-30T08:58:26.864Z,7.92
2019-03-30T09:00:55.755Z,6.42
2019-03-30T09:03:24.639Z,6.30
2019-03-30T09:05:53.555Z,7.55
2019-03-30T09:08:22.454Z,7.47
2019-03-30T09:10:51.350Z,7.43
2019-03-30T09:13:20.309Z,7.67
2019-03-30T09:15:49.160Z,12.07
2019-03-30T09:18:18.055Z,8.90
2019-03-30T09:20:46.971Z,11.87
2019-03-30T09:23:15.875Z,10.40
2019-03-30T09:25:44.746Z,10.53
2019-03-30T09:28:14.062Z,10.48
2019-03-30T09:30:42.888Z,12.43
2019-03-30T09:33:11.805Z,13.17
2019-03-30T09:35:40.686Z,8.00
2019-03-30T09:38:09.572Z,9.18
2019-03-30T09:40:38.476Z,11.45
2019-03-30T09:43:07.512Z,10.93
2019-03-30T09:45:36.409Z,11.00
2019-03-30T09:48:05.393Z,9.73
2019-03-30T09:50:34.310Z,12.67
2019-03-30T09:53:03.210Z,10.33
2019-03-30T09:55:32.120Z,13.67
2019-03-30T09:58:01.079Z,11.93
2019-03-30T10:00:31.067Z,10.90
2019-03-30T10:03:00.034Z,13.10
2019-03-30T10:05:29.991Z,10.93
2019-03-30T10:07:58.973Z,11.45
2019-03-30T10:10:28.071Z,11.88
2019-03-30T10:12:56.987Z,9.03
2019-03-30T10:15:25.878Z,7.73
2019-03-30T10:17:54.855Z,10.32
2019-03-30T10:20:23.766Z,10.67
2019-03-30T10:22:52.664Z,10.70
2019-03-30T10:25:21.553Z,9.30
2019-03-30T10:27:50.467Z,10.78
2019-03-30T10:30:19.364Z,7.27
2019-03-30T10:32:48.254Z,10.70
2019-03-30T10:35:17.224Z,9.63
2019-03-30T10:37:46.127Z,10.23
2019-03-30T10:40:15.088Z,11.20
2019-03-30T10:42:43.976Z,12.55
2019-03-30T10:45:12.888Z,12.33
2019-03-30T10:47:41.791Z,17.60
2019-03-30T10:50:10.889Z,14.55
2019-03-30T10:52:39.807Z,8.97
2019-03-30T10:55:08.755Z,12.20
2019-03-30T10:57:37.707Z,11.20
2019-03-30T11:00:08.568Z,14.33
2019-03-30T11:02:37.694Z,16.77
2019-03-30T11:05:06.822Z,10.43
2019-03-30T11:07:36.694Z,14.75
2019-03-30T11:10:06.006Z,17.62
2019-03-30T11:12:34.886Z,8.00
2019-03-30T11:15:04.156Z,8.47
2019-03-30T11:17:33.059Z,13.67
2019-03-30T11:20:01.976Z,14.15
2019-03-30T11:22:30.865Z,17.85
2019-03-30T11:25:07.407Z,18.03
2019-03-30T11:27:31.394Z,15.85
2019-03-30T11:30:00.366Z,20.85
2019-03-30T11:32:29.396Z,16.32
2019-03-30T11:34:58.448Z,18.85
2019-03-30T11:37:27.323Z,8.87
2019-03-30T11:39:56.218Z,15.03
2019-03-30T11:42:25.116Z,16.73
2019-03-30T11:44:54.431Z,8.98
2019-03-30T11:47:23.336Z,16.20
2019-03-30T11:49:52.247Z,17.23
2019-03-30T11:52:21.157Z,21.57
2019-03-30T11:54:50.067Z,16.25
2019-03-30T11:57:18.963Z,2.75
2019-03-30T11:59:47.859Z,16.40
2019-03-30T12:02:27.358Z,20.47
2019-03-30T12:04:47.271Z,18.95
2019-03-30T12:07:16.180Z,11.85
2019-03-30T12:09:45.080Z,10.32
2019-03-30T12:12:14.023Z,7.05
2019-03-30T12:14:42.918Z,17.60
2019-03-30T12:17:11.816Z,15.88
2019-03-30T12:19:40.831Z,7.60
2019-03-30T12:22:09.727Z,8.63
2019-03-30T12:24:38.644Z,8.37
2019-03-30T12:27:07.545Z,14.98
2019-03-30T12:29:36.447Z,15.50
2019-03-30T12:32:05.349Z,13.53
2019-03-30T12:34:34.243Z,15.20
2019-03-30T12:37:03.223Z,16.20
2019-03-30T12:39:32.497Z,18.00
2019-03-30T12:42:01.392Z,8.57
2019-03-30T12:44:30.290Z,17.95
2019-03-30T12:46:59.240Z,15.85
2019-03-30T12:49:28.150Z,15.63
2019-03-30T12:51:57.111Z,16.73
2019-03-30T12:54:26.043Z,5.47
2019-03-30T12:56:55.993Z,14.93
2019-03-30T12:59:24.887Z,9.97
2019-03-30T13:01:53.799Z,12.53
2019-03-30T13:04:22.707Z,3.72
2019-03-30T13:06:51.669Z,6.37
2019-03-30T13:09:20.576Z,12.50
2019-03-30T13:11:49.477Z,14.10
2019-03-30T13:14:18.599Z,15.65
2019-03-30T13:16:47.486Z,8.33
2019-03-30T13:19:16.408Z,10.28
2019-03-30T13:21:52.503Z,12.83
2019-03-30T13:24:15.843Z,12.90
2019-03-30T13:26:44.767Z,13.90
2019-03-30T13:29:13.704Z,11.18
2019-03-30T13:31:42.579Z,12.27
2019-03-30T13:34:11.463Z,14.05
2019-03-30T13:36:42.499Z,12.82
2019-03-30T13:39:11.375Z,12.07
2019-03-30T13:41:40.275Z,10.13
2019-03-30T13:44:09.265Z,14.53
2019-03-30T13:46:38.155Z,12.23
2019-03-30T13:49:07.071Z,14.47
2019-03-30T13:51:35.975Z,10.63
2019-03-30T13:54:04.883Z,11.83
2019-03-30T13:56:33.783Z,11.40
2019-03-30T13:59:02.662Z,7.75
2019-03-30T14:01:31.579Z,14.93
2019-03-30T14:04:00.479Z,13.57
2019-03-30T14:06:29.360Z,4.67
2019-03-30T14:08:58.271Z,12.15
2019-03-30T14:11:27.225Z,14.27
2019-03-30T14:13:56.122Z,4.67
2019-03-30T14:16:25.010Z,5.35
2019-03-30T14:18:53.899Z,11.95
2019-03-30T14:21:22.783Z,10.93
2019-03-30T14:23:51.703Z,10.57
2019-03-30T14:26:30.842Z,8.28
2019-03-30T14:28:51.279Z,7.80
2019-03-30T14:31:20.158Z,6.37
2019-03-30T14:33:49.062Z,2.62
2019-03-30T14:36:17.975Z,13.07
2019-03-30T14:38:46.863Z,11.77
2019-03-30T14:41:15.755Z,11.53
2019-03-30T14:43:44.751Z,11.25
2019-03-30T14:46:13.644Z,11.57
2019-03-30T14:48:42.543Z,4.77
2019-03-30T14:51:11.443Z,15.72
2019-03-30T14:53:40.367Z,9.73
2019-03-30T14:56:09.339Z,12.58
2019-03-30T14:58:38.255Z,13.78
2019-03-30T15:01:07.228Z,15.35
2019-03-30T15:03:36.126Z,10.03
2019-03-30T15:06:07.079Z,6.10
2019-03-30T15:08:35.591Z,17.23
2019-03-30T15:11:04.523Z,13.03
2019-03-30T15:13:33.435Z,6.60
2019-03-30T15:16:02.326Z,18.87
2019-03-30T15:18:31.206Z,17.20
2019-03-30T15:21:00.197Z,13.60
2019-03-30T15:23:29.109Z,13.93
2019-03-30T15:25:58.227Z,15.50
2019-03-30T15:28:27.107Z,10.98
2019-03-30T15:30:56.011Z,10.93
2019-03-30T15:33:24.914Z,17.60
2019-03-30T15:35:53.951Z,17.97
2019-03-30T15:38:23.812Z,20.15
2019-03-30T15:40:55.547Z,23.38
2019-03-30T15:43:37.132Z,19.35
2019-03-30T15:45:53.767Z,12.37
2019-03-30T15:48:23.038Z,6.93
2019-03-30T15:50:51.927Z,6.27
2019-03-30T15:53:20.870Z,16.57
2019-03-30T15:55:49.750Z,7.03
2019-03-30T15:58:18.706Z,13.50
2019-03-30T16:00:47.626Z,10.88
2019-03-30T16:03:16.564Z,18.77
2019-03-30T16:05:45.443Z,13.08
2019-03-30T16:08:14.355Z,23.13
2019-03-30T16:10:43.267Z,20.25
2019-03-30T16:13:14.648Z,20.75
2019-03-30T16:15:44.717Z,18.70
2019-03-30T16:18:13.814Z,19.70
2019-03-30T16:20:42.703Z,18.05
2019-03-30T16:23:11.655Z,19.77
2019-03-30T16:25:40.575Z,19.23
2019-03-30T16:28:09.563Z,20.20
2019-03-30T16:30:38.686Z,17.60
2019-03-30T16:33:07.579Z,17.30
2019-03-30T16:35:36.476Z,21.63
2019-03-30T16:38:05.523Z,16.70
2019-03-30T16:40:35.198Z,23.25
2019-03-30T16:43:04.140Z,20.45
2019-03-30T16:45:33.298Z,22.20
2019-03-30T16:48:02.242Z,21.87
2019-03-30T16:50:31.178Z,22.58
2019-03-30T16:53:00.143Z,23.33
2019-03-30T16:55:29.054Z,21.37
2019-03-30T16:57:59.043Z,17.97
2019-03-30T17:00:31.156Z,21.73
2019-03-30T17:03:00.071Z,22.30
2019-03-30T17:05:29.003Z,21.17
2019-03-30T17:07:57.903Z,19.75
2019-03-30T17:10:26.823Z,20.87
2019-03-30T17:12:55.716Z,22.60
2019-03-30T17:15:24.642Z,21.03
2019-03-30T17:17:53.574Z,20.97
2019-03-30T17:20:22.947Z,22.53
2019-03-30T17:22:51.911Z,18.60
2019-03-30T17:25:20.874Z,21.63
2019-03-30T17:27:58.099Z,20.27
2019-03-30T17:30:20.306Z,21.57
2019-03-30T17:32:49.279Z,22.83
2019-03-30T17:35:18.181Z,23.47
2019-03-30T17:37:47.109Z,19.47
2019-03-30T17:40:16.019Z,23.63
2019-03-30T17:42:44.915Z,21.97
2019-03-30T17:45:13.933Z,22.07
2019-03-30T17:47:42.829Z,21.47
2019-03-30T17:50:11.759Z,20.60
2019-03-30T17:52:40.719Z,22.43
2019-03-30T17:55:09.749Z,23.40
2019-03-30T17:57:38.659Z,22.07
2019-03-30T18:00:08.757Z,19.48
2019-03-30T18:02:37.664Z,20.60
2019-03-30T18:05:06.595Z,22.97
2019-03-30T18:07:35.511Z,21.37
2019-03-30T18:10:04.959Z,22.13
2019-03-30T18:12:33.916Z,21.62
2019-03-30T18:15:02.888Z,24.13
2019-03-30T18:17:31.875Z,21.20
2019-03-30T18:20:00.783Z,19.60
2019-03-30T18:22:29.690Z,20.10
2019-03-30T18:24:58.584Z,21.70
2019-03-30T18:27:27.602Z,22.90
2019-03-30T18:29:56.503Z,21.77
2019-03-30T18:32:25.603Z,21.52
2019-03-30T18:34:55.527Z,24.75
2019-03-30T18:37:24.551Z,24.90
2019-03-30T18:39:53.446Z,22.37
2019-03-30T18:42:22.371Z,22.70
2019-03-30T18:44:53.078Z,25.20
2019-03-30T18:47:22.031Z,25.57
2019-03-30T18:49:50.931Z,28.30
2019-03-30T18:52:19.951Z,29.23
2019-03-30T18:54:49.775Z,29.75
2019-03-30T18:57:18.678Z,29.87
2019-03-30T18:59:47.763Z,29.20
2019-03-30T19:02:19.104Z,32.53
2019-03-30T19:04:47.163Z,34.43
2019-03-30T19:07:16.089Z,42.63
2019-03-30T19:09:44.987Z,29.70
2019-03-30T19:12:13.895Z,33.23
2019-03-30T19:14:42.880Z,30.20
2019-03-30T19:17:11.771Z,28.90
2019-03-30T19:19:40.667Z,32.45
2019-03-30T19:22:09.595Z,31.17
2019-03-30T19:24:38.598Z,33.15
2019-03-30T19:27:07.462Z,33.73
2019-03-30T19:29:36.368Z,36.03
2019-03-30T19:32:05.815Z,38.42
2019-03-30T19:34:34.743Z,37.80
2019-03-30T19:37:03.655Z,35.33
2019-03-30T19:39:32.588Z,35.98
2019-03-30T19:42:01.492Z,35.88
2019-03-30T19:44:30.394Z,38.48
2019-03-30T19:46:59.314Z,47.27
2019-03-30T19:49:28.239Z,35.47
2019-03-30T19:51:57.471Z,38.17
2019-03-30T19:54:26.378Z,40.63
2019-03-30T19:56:55.289Z,33.20
2019-03-30T19:59:24.216Z,38.57
2019-03-30T20:01:53.135Z,38.92
2019-03-30T20:04:22.051Z,38.37
2019-03-30T20:06:50.959Z,37.47
2019-03-30T20:09:20.989Z,36.27
2019-03-30T20:11:50.760Z,35.90
2019-03-30T20:14:19.663Z,36.53
2019-03-30T20:16:48.568Z,38.00
2019-03-30T20:19:17.535Z,40.73
2019-03-30T20:21:46.433Z,46.98
2019-03-30T20:24:15.354Z,50.00
2019-03-30T20:26:44.631Z,36.45
2019-03-30T20:29:24.755Z,33.55
2019-03-30T20:31:44.052Z,35.00
2019-03-30T20:34:13.734Z,37.75
2019-03-30T20:36:43.718Z,33.67
2019-03-30T20:39:12.785Z,36.30
2019-03-30T20:41:41.751Z,35.65
2019-03-30T20:44:10.758Z,34.67
2019-03-30T20:46:39.655Z,32.85
2019-03-30T20:49:08.579Z,36.77
2019-03-30T20:51:38.459Z,34.65
2019-03-30T20:54:07.387Z,32.20
2019-03-30T20:56:36.310Z,31.57
2019-03-30T20:59:05.239Z,31.97
2019-03-30T21:01:34.159Z,36.33
2019-03-30T21:04:03.118Z,37.63
2019-03-30T21:06:32.023Z,36.20
2019-03-30T21:09:00.904Z,37.10
2019-03-30T21:11:31.615Z,42.05
2019-03-30T21:14:00.506Z,40.00
2019-03-30T21:16:29.415Z,37.93
2019-03-30T21:18:58.763Z,40.03
2019-03-30T21:21:27.675Z,34.98
2019-03-30T21:23:56.740Z,39.23
2019-03-30T21:26:28.504Z,38.10
2019-03-30T21:28:56.252Z,42.30
2019-03-30T21:31:25.911Z,44.87
2019-03-30T21:33:54.802Z,43.97
2019-03-30T21:36:24.327Z,48.50
2019-03-30T21:38:53.251Z,43.70
2019-03-30T21:41:22.246Z,41.10
2019-03-30T21:43:51.469Z,42.55
2019-03-30T21:46:21.367Z,39.67
2019-03-30T21:48:50.263Z,44.03
2019-03-30T21:51:19.159Z,45.15
2019-03-30T21:53:48.234Z,42.73
2019-03-30T21:56:17.195Z,45.87
2019-03-30T21:58:46.103Z,42.60
2019-03-30T22:01:15.356Z,43.87
2019-03-30T22:03:44.260Z,48.77
2019-03-30T22:06:13.182Z,45.78
2019-03-30T22:08:43.150Z,44.27
2019-03-30T22:11:12.054Z,46.53
2019-03-30T22:13:40.947Z,50.35
2019-03-30T22:16:09.844Z,50.67
2019-03-30T22:18:38.755Z,50.60
2019-03-30T22:21:07.651Z,45.80
2019-03-30T22:23:36.560Z,45.87
2019-03-30T22:26:05.643Z,46.80
2019-03-30T22:28:34.535Z,44.03
2019-03-30T22:31:03.513Z,46.90
2019-03-30T22:33:32.463Z,50.50
2019-03-30T22:36:01.351Z,43.33
2019-03-30T22:38:30.239Z,42.97
2019-03-30T22:40:59.330Z,51.63
2019-03-30T22:43:29.286Z,47.07
2019-03-30T22:45:58.175Z,49.87
2019-03-30T22:48:27.079Z,45.37
2019-03-30T22:50:55.988Z,53.45
2019-03-30T22:53:24.893Z,45.97
2019-03-30T22:55:54.517Z,51.33
2019-03-30T22:58:23.402Z,46.90
2019-03-30T23:01:05.683Z,49.43
2019-03-30T23:03:34.768Z,48.60
2019-03-30T23:06:03.673Z,51.50
2019-03-30T23:08:32.552Z,47.37
2019-03-30T23:11:01.471Z,48.00
2019-03-30T23:13:30.391Z,50.27
2019-03-30T23:15:59.480Z,52.20
2019-03-30T23:18:28.384Z,48.75
2019-03-30T23:20:57.294Z,48.33
2019-03-30T23:23:26.647Z,45.98
2019-03-30T23:25:56.518Z,46.17
2019-03-30T23:28:25.475Z,52.35
2019-03-30T23:30:54.892Z,53.53
2019-03-30T23:33:23.931Z,50.60
2019-03-30T23:35:53.138Z,53.52
2019-03-30T23:38:22.103Z,50.50
2019-03-30T23:40:51.019Z,49.80
2019-03-30T23:43:19.903Z,54.03
2019-03-30T23:45:48.863Z,45.63
2019-03-30T23:48:17.771Z,49.37
2019-03-30T23:50:46.650Z,58.20
2019-03-30T23:53:15.571Z,52.30
2019-03-30T23:55:44.474Z,53.57
2019-03-30T23:58:13.359Z,50.40
